Tuesday, September 25, 2018, 7:09 PM EDT
Back to Local

KLWM, Lawrence Municipal Airport

Location: North Andover, MA, United States Lat: 42.717
Local Time: 7:09 PM EDT (23:09 GMT) Lon: -71.133
Time Zone: US/Eastern Elev: 147 ft

Show me the last for .
Show Decoded

2018-09-25 17:54 METAR KLWM 252154Z 12008G19KT 5SM RA OVC011 18/16 A3027 RMK AO2 SLP251 P0008
                 T01830156 =
2018-09-25 16:54 METAR KLWM 252054Z 11008G16KT 5SM RA BKN009 18/15 A3030 RMK AO2 CIG 006V012
                 SLP261 P0010 60020 T01780150 58040 =
2018-09-25 15:54 METAR KLWM 251954Z 11005KT 4SM RA BKN009 OVC013 18/14 A3035 RMK AO2 CIG 006V011
                 SLP275 P0009 T01780144 =
2018-09-25 14:54 METAR KLWM 251854Z 10006KT 5SM -RA BKN013 OVC030 17/14 A3038 RMK AO2 SLP289
                 P0001 T01720139 =
2018-09-25 14:01 METAR KLWM 251801Z 10007KT 7SM -RA BKN014 BKN048 OVC065 17/14 A3042 RMK AO2
                 P0000 T01720139 =
2018-09-25 13:54 METAR KLWM 251754Z 10007KT 7SM -RA SCT012 BKN018 OVC090 17/14 A3042 RMK AO2
                 SLP301 P0004 60004 T01720139 10172 20094 58034 =
2018-09-25 13:44 METAR KLWM 251744Z 10006KT 6SM -RA BKN014 BKN046 OVC090 17/14 A3043 RMK AO2
                 P0003 T01720139 =
2018-09-25 13:40 METAR KLWM 251740Z 10006KT 6SM RA SCT016 BKN050 OVC090 17/14 A3043 RMK AO2 P0003
                 T01720139 =
2018-09-25 12:54 METAR KLWM 251654Z 09006KT 8SM -RA BKN018 BKN070 OVC090 17/14 A3047 RMK AO2
                 SLP318 P0000 T01720139 =
2018-09-25 12:31 METAR KLWM 251631Z 08007KT 9SM -RA BKN015 BKN032 OVC100 17/13 A3049 RMK AO2
                 P0000 T01720133 =
2018-09-25 11:54 METAR KLWM 251554Z 06004KT 10SM -RA FEW085 OVC110 17/13 A3050 RMK AO2 SLP329
                 P0000 T01670133 =
2018-09-25 10:54 METAR KLWM 251454Z 07005KT 10SM -RA OVC100 15/11 A3052 RMK AO2 SLP335 P0000
                 60000 T01500111 58013 =
2018-09-25 09:54 METAR KLWM 251354Z 03005KT 10SM -RA OVC100 12/09 A3055 RMK AO2 RAB03 SLP346
                 P0000 T01220089 =
2018-09-25 08:54 METAR KLWM 251254Z 02004KT 10SM FEW025 12/07 A3055 RMK AO2 SLP347 T01170072 =
2018-09-25 07:54 METAR KLWM 251154Z 02003KT 10SM CLR 09/06 A3056 RMK AO2 RAB03E30 SLP350 P0000
                 60000 T00940061 10094 20078 58006 =
2018-09-25 06:54 METAR KLWM 251054Z 01003KT 10SM CLR 08/05 A3058 RMK AO2 SLP357 T00830050 =
2018-09-25 05:54 METAR KLWM 250954Z AUTO 35003KT 10SM CLR 08/04 A3058 RMK AO2 SLP356 T00780044 =
2018-09-25 04:54 METAR KLWM 250854Z AUTO 03005KT 10SM CLR 08/04 A3058 RMK AO2 SLP356 T00830044
                 56015 =
2018-09-25 03:54 METAR KLWM 250754Z AUTO 03006KT 10SM CLR 08/05 A3059 RMK AO2 SLP358 T00830050 =
2018-09-25 02:54 METAR KLWM 250654Z AUTO 03003KT 10SM CLR 08/05 A3061 RMK AO2 SLP366 T00830050 =
2018-09-25 01:54 METAR KLWM 250554Z AUTO 04005KT 10SM CLR 09/05 A3062 RMK AO2 SLP370 T00890050
                 10106 20083 57011 =
2018-09-25 00:54 METAR KLWM 250454Z AUTO 03003KT 10SM CLR 09/05 A3063 RMK AO2 SLP373 T00890050
                 401610083 =
2018-09-24 23:54 METAR KLWM 250354Z AUTO 00000KT 10SM CLR 09/05 A3065 RMK AO2 SLP379 T00940050 =
2018-09-24 22:54 METAR KLWM 250254Z AUTO 00000KT 10SM CLR 10/06 A3066 RMK AO2 SLP382 T01000056
                 51008 =
2018-09-24 21:54 METAR KLWM 250154Z 03004KT 10SM CLR 09/06 A3065 RMK AO2 SLP380 T00940056 =
2018-09-24 20:54 METAR KLWM 250054Z 03005KT 10SM SCT032 10/06 A3065 RMK AO2 SLP378 T01000056 =
2018-09-24 19:54 METAR KLWM 242354Z 04006KT 10SM OVC032 11/06 A3063 RMK AO2 SLP374 T01060056
                 10161 20100 51005 =

Support USWX by starting your Amazon purchase here.